Time;durP1;ratioP1;P1;durP2;ratioP2;P2;SDS_P1;SDS_P2;PMS_P1;PMS_P2;Temp;Humidity;BMP_temperature;BMP_pressure;BME280_temperature;BME280_humidity;BME280_pressure;Samples;Min_cycle;Max_cycle;Signal;HPM_P1;HPM_P2
2022/07/23 00:01:23;;;;;;;8.90;7.35;;;21.80;99.90;;;;;;5093004;28;20179;-79
2022/07/23 00:03:49;;;;;;;12.23;6.70;;;21.80;99.90;;;;;;5095694;28;20477;-75
2022/07/23 00:06:16;;;;;;;7.65;6.75;;;21.70;99.90;;;;;;5095266;28;20180;-78
2022/07/23 00:08:44;;;;;;;7.28;6.57;;;21.70;99.90;;;;;;5097399;28;20192;-79
2022/07/23 00:11:12;;;;;;;8.38;7.38;;;21.70;99.90;;;;;;5094523;28;20231;-77
2022/07/23 00:13:42;;;;;;;9.52;6.93;;;21.70;99.90;;;;;;5091370;28;20181;-78
2022/07/23 00:16:08;;;;;;;7.05;6.35;;;21.70;99.90;;;;;;5096684;28;20176;-78
2022/07/23 00:18:34;;;;;;;8.77;7.07;;;21.70;99.90;;;;;;5094981;28;20261;-78
2022/07/23 00:21:02;;;;;;;8.35;7.03;;;21.70;99.90;;;;;;5092979;28;20188;-78
2022/07/23 00:23:30;;;;;;;9.38;7.47;;;21.70;99.90;;;;;;5097247;28;20184;-76
2022/07/23 00:25:57;;;;;;;10.57;8.20;;;21.70;99.90;;;;;;5127152;27;20179;-78
2022/07/23 00:28:22;;;;;;;9.68;7.22;;;21.70;99.90;;;;;;5100079;28;20247;-78
2022/07/23 00:30:50;;;;;;;9.32;7.40;;;21.70;99.90;;;;;;5096501;28;20345;-77
2022/07/23 00:33:16;;;;;;;9.55;7.35;;;21.60;99.90;;;;;;5099063;28;20214;-77
2022/07/23 00:35:42;;;;;;;10.40;7.38;;;21.60;99.90;;;;;;5094667;28;20176;-77
2022/07/23 00:38:09;;;;;;;8.55;6.97;;;21.60;99.90;;;;;;5095003;28;20258;-77
2022/07/23 00:40:37;;;;;;;8.43;7.13;;;21.60;99.90;;;;;;5095534;28;20210;-79
2022/07/23 00:43:04;;;;;;;8.43;6.80;;;21.60;99.90;;;;;;5092931;28;20187;-76
2022/07/23 00:45:32;;;;;;;10.52;8.13;;;21.60;99.90;;;;;;5094077;28;20191;-78
2022/07/23 00:47:58;;;;;;;10.88;8.07;;;21.60;99.90;;;;;;5094449;28;20195;-78
2022/07/23 00:50:24;;;;;;;9.30;7.80;;;21.50;99.90;;;;;;5092519;28;20210;-78
2022/07/23 00:52:51;;;;;;;10.88;8.52;;;21.50;99.90;;;;;;5091366;28;20249;-77
2022/07/23 00:55:20;;;;;;;9.30;7.90;;;21.50;99.90;;;;;;5091648;28;20215;-78
2022/07/23 00:57:46;;;;;;;10.23;8.27;;;21.50;99.90;;;;;;5092777;28;20202;-78
2022/07/23 01:00:14;;;;;;;9.68;8.68;;;21.50;99.90;;;;;;5095053;28;20988;-78
2022/07/23 01:02:40;;;;;;;11.00;9.63;;;21.40;99.90;;;;;;5091258;28;20211;-77
2022/07/23 01:05:07;;;;;;;11.88;10.48;;;21.40;99.90;;;;;;5093885;28;20451;-77
2022/07/23 01:07:33;;;;;;;12.48;9.38;;;21.40;99.90;;;;;;5094061;28;20209;-77
2022/07/23 01:10:01;;;;;;;10.23;8.43;;;21.40;99.90;;;;;;5089896;28;20208;-78
2022/07/23 01:12:27;;;;;;;11.27;8.13;;;21.40;99.90;;;;;;5091994;28;20215;-77
2022/07/23 01:15:00;;;;;;;10.00;8.65;;;21.30;99.90;;;;;;5092186;28;20207;-76
2022/07/23 01:17:26;;;;;;;10.00;8.75;;;21.30;99.90;;;;;;5093795;28;20286;-77
2022/07/23 01:19:51;;;;;;;11.35;8.50;;;21.30;99.90;;;;;;5093307;28;20176;-76
2022/07/23 01:22:23;;;;;;;11.38;8.75;;;21.30;99.90;;;;;;5093314;28;20238;-75
2022/07/23 01:24:48;;;;;;;12.15;9.05;;;21.30;99.90;;;;;;5092168;28;20211;-74
2022/07/23 01:27:19;;;;;;;9.18;7.93;;;21.30;99.90;;;;;;5092733;28;20214;-76
2022/07/23 01:29:47;;;;;;;9.70;8.55;;;21.20;99.90;;;;;;5089899;28;20260;-76
2022/07/23 01:32:12;;;;;;;11.13;8.45;;;21.20;99.90;;;;;;5092642;28;20196;-77
2022/07/23 01:34:39;;;;;;;10.02;8.55;;;21.20;99.90;;;;;;5091984;28;20221;-77
2022/07/23 01:37:05;;;;;;;11.00;7.93;;;21.20;99.90;;;;;;5094360;28;20176;-77
2022/07/23 01:39:30;;;;;;;10.77;8.38;;;21.10;99.90;;;;;;5095765;28;20187;-77
2022/07/23 01:41:58;;;;;;;10.93;8.82;;;21.10;99.90;;;;;;5091430;28;20186;-78
2022/07/23 01:44:27;;;;;;;9.60;8.15;;;21.10;99.90;;;;;;5089839;28;20180;-77
2022/07/23 01:46:52;;;;;;;9.93;8.57;;;21.00;99.90;;;;;;5092841;28;20937;-77
2022/07/23 01:49:18;;;;;;;10.73;8.23;;;21.00;99.90;;;;;;5093232;28;20178;-77
2022/07/23 01:52:02;;;;;;;12.90;8.82;;;21.00;99.90;;;;;;5095461;28;20199;-77
2022/07/23 01:54:30;;;;;;;13.30;10.63;;;21.00;99.90;;;;;;5096276;28;20261;-73
2022/07/23 01:56:56;;;;;;;10.93;8.95;;;21.00;99.90;;;;;;5093945;28;20172;-76
2022/07/23 01:59:22;;;;;;;12.98;9.30;;;20.90;99.90;;;;;;5094606;28;20203;-78
2022/07/23 02:01:50;;;;;;;9.60;8.40;;;20.90;99.90;;;;;;5092697;28;20189;-77
2022/07/23 02:04:25;;;;;;;12.13;8.75;;;20.90;99.90;;;;;;5093442;28;20263;-78
2022/07/23 02:06:52;;;;;;;12.52;8.70;;;20.90;99.90;;;;;;5094708;28;20191;-77
2022/07/23 02:09:20;;;;;;;9.32;7.80;;;20.80;99.90;;;;;;5093376;28;20196;-76
2022/07/23 02:11:46;;;;;;;9.35;7.38;;;20.80;99.90;;;;;;5093939;28;20195;-76
2022/07/23 02:14:12;;;;;;;8.75;7.38;;;20.80;99.90;;;;;;5090112;28;20204;-77
2022/07/23 02:16:37;;;;;;;9.30;7.05;;;20.70;99.90;;;;;;5091730;28;20180;-77
2022/07/23 02:19:06;;;;;;;9.68;7.97;;;20.70;99.90;;;;;;5092408;28;20196;-75
2022/07/23 02:21:31;;;;;;;8.82;7.18;;;20.70;99.90;;;;;;5097890;28;20176;-77
2022/07/23 02:23:57;;;;;;;8.70;7.38;;;20.70;99.90;;;;;;5098451;28;20175;-76
2022/07/23 02:26:25;;;;;;;8.57;7.07;;;20.70;99.90;;;;;;5112208;27;20276;-76
2022/07/23 02:28:52;;;;;;;9.70;7.30;;;20.70;99.90;;;;;;5098052;28;20175;-76
2022/07/23 02:31:18;;;;;;;8.50;6.93;;;20.70;99.90;;;;;;5097615;28;20229;-76
2022/07/23 02:33:44;;;;;;;8.52;6.70;;;20.70;99.90;;;;;;5098054;28;20180;-76
2022/07/23 02:36:09;;;;;;;9.02;7.85;;;20.70;99.90;;;;;;5100727;28;21905;-74
2022/07/23 02:38:35;;;;;;;8.95;7.45;;;20.60;99.90;;;;;;5096309;28;20196;-76
2022/07/23 02:41:03;;;;;;;9.57;7.68;;;20.60;99.90;;;;;;5099715;28;20180;-75
2022/07/23 02:43:29;;;;;;;9.30;7.15;;;20.60;99.90;;;;;;5100181;28;20202;-77
2022/07/23 02:45:54;;;;;;;10.20;7.40;;;20.60;99.90;;;;;;5099166;28;20450;-77
2022/07/23 02:48:20;;;;;;;8.80;7.00;;;20.50;99.90;;;;;;5093818;28;20184;-75
2022/07/23 02:50:45;;;;;;;7.00;6.05;;;20.50;99.90;;;;;;5097244;28;20225;-77
2022/07/23 02:53:11;;;;;;;7.90;6.35;;;20.50;99.90;;;;;;5095711;28;20245;-76
2022/07/23 02:55:37;;;;;;;7.93;6.43;;;20.50;99.90;;;;;;5096272;28;20221;-77
2022/07/23 02:58:05;;;;;;;8.77;6.38;;;20.50;99.90;;;;;;5092664;28;20234;-77
2022/07/23 03:00:31;;;;;;;7.68;6.05;;;20.40;99.90;;;;;;5097604;28;20180;-76
2022/07/23 03:02:59;;;;;;;11.15;7.07;;;20.40;99.90;;;;;;5092917;28;20264;-77
2022/07/23 03:05:27;;;;;;;6.90;6.13;;;20.40;99.90;;;;;;5096769;28;20207;-77
2022/07/23 03:07:55;;;;;;;6.93;5.63;;;20.40;99.90;;;;;;5098520;28;20172;-77
2022/07/23 03:10:20;;;;;;;7.03;5.63;;;20.30;99.90;;;;;;5094578;28;20286;-76
2022/07/23 03:12:48;;;;;;;7.10;5.50;;;20.30;99.90;;;;;;5097877;28;20230;-75
2022/07/23 03:15:14;;;;;;;5.95;5.35;;;20.30;99.90;;;;;;5130341;27;20263;-77
2022/07/23 03:17:39;;;;;;;8.23;5.68;;;20.30;99.90;;;;;;5095297;28;20259;-77
2022/07/23 03:20:06;;;;;;;5.97;5.38;;;20.20;99.90;;;;;;5094244;28;20204;-77
2022/07/23 03:22:32;;;;;;;7.20;5.80;;;20.20;99.90;;;;;;5091799;28;20186;-77
2022/07/23 03:24:57;;;;;;;6.93;5.72;;;20.20;99.90;;;;;;5094717;28;20180;-77
2022/07/23 03:27:30;;;;;;;7.32;6.22;;;20.20;99.90;;;;;;5091953;28;20196;-75
2022/07/23 03:29:59;;;;;;;7.10;5.50;;;20.20;99.90;;;;;;5098128;28;20203;-76
2022/07/23 03:32:25;;;;;;;9.80;6.43;;;20.10;99.90;;;;;;5094411;28;20186;-75
2022/07/23 03:34:51;;;;;;;7.97;5.93;;;20.10;99.90;;;;;;5094261;28;20195;-77
2022/07/23 03:37:20;;;;;;;7.25;5.55;;;20.10;99.90;;;;;;5090168;28;20172;-76
2022/07/23 03:39:48;;;;;;;8.30;6.00;;;20.00;99.90;;;;;;5092576;28;20195;-74
2022/07/23 03:42:13;;;;;;;7.93;6.18;;;20.00;99.90;;;;;;5094167;28;20180;-77
2022/07/23 03:44:39;;;;;;;8.02;6.10;;;19.90;99.90;;;;;;5091680;28;20182;-76
2022/07/23 03:47:05;;;;;;;8.07;6.03;;;19.90;99.90;;;;;;5096417;28;20214;-77
2022/07/23 03:49:31;;;;;;;7.78;5.82;;;19.80;99.90;;;;;;5098167;28;20267;-76
2022/07/23 03:51:57;;;;;;;6.28;5.57;;;19.80;99.90;;;;;;5094688;28;20280;-77
2022/07/23 03:54:25;;;;;;;7.35;5.88;;;19.70;99.90;;;;;;5093832;28;20263;-77
2022/07/23 03:56:51;;;;;;;7.05;5.68;;;19.70;99.90;;;;;;5094933;28;21009;-74
2022/07/23 03:59:16;;;;;;;9.60;6.82;;;19.60;99.90;;;;;;5099518;28;20172;-76
2022/07/23 04:01:44;;;;;;;7.65;6.13;;;19.60;99.90;;;;;;5094984;28;20203;-75
2022/07/23 04:04:10;;;;;;;8.55;6.93;;;19.50;99.90;;;;;;5093713;28;20262;-77
2022/07/23 04:06:36;;;;;;;8.43;6.65;;;19.50;99.90;;;;;;5094442;28;20214;-76
2022/07/23 04:09:02;;;;;;;9.15;6.53;;;19.40;99.90;;;;;;5093967;28;20188;-75
2022/07/23 04:11:28;;;;;;;7.53;6.25;;;19.40;99.90;;;;;;5091537;28;20205;-77
2022/07/23 04:13:54;;;;;;;8.07;6.47;;;19.30;99.90;;;;;;5100021;28;20338;-76
2022/07/23 04:16:19;;;;;;;10.20;6.65;;;19.30;99.90;;;;;;5093985;28;20176;-74
2022/07/23 04:18:47;;;;;;;11.20;6.78;;;19.20;99.90;;;;;;5090903;28;20188;-78
2022/07/23 04:21:13;;;;;;;9.98;7.30;;;19.20;99.90;;;;;;5096292;28;20191;-77
2022/07/23 04:23:38;;;;;;;12.18;8.65;;;19.20;99.90;;;;;;5093030;28;20222;-78
2022/07/23 04:26:04;;;;;;;10.45;7.90;;;19.10;99.90;;;;;;5091152;28;20181;-77
2022/07/23 04:28:30;;;;;;;9.27;6.32;;;19.10;99.90;;;;;;5096620;28;20200;-77
2022/07/23 04:30:59;;;;;;;8.68;6.72;;;19.10;99.90;;;;;;5095029;28;20263;-77
2022/07/23 04:33:26;;;;;;;8.35;6.82;;;19.00;99.90;;;;;;5091980;28;20177;-74
2022/07/23 04:35:52;;;;;;;6.70;5.97;;;19.00;99.90;;;;;;5094620;28;20191;-77
2022/07/23 04:38:18;;;;;;;8.65;6.70;;;19.00;99.90;;;;;;5100824;28;20169;-77
2022/07/23 04:40:46;;;;;;;7.57;6.78;;;19.00;99.90;;;;;;5095481;28;20203;-75
2022/07/23 04:43:11;;;;;;;8.48;6.68;;;19.00;99.90;;;;;;5093848;28;20172;-78
2022/07/23 04:45:39;;;;;;;9.43;7.10;;;19.10;99.90;;;;;;5092226;28;20225;-78
2022/07/23 04:48:05;;;;;;;10.40;7.25;;;19.00;99.90;;;;;;5092302;28;20216;-77
2022/07/23 04:50:30;;;;;;;8.38;7.15;;;19.10;99.90;;;;;;5095523;28;20200;-77
2022/07/23 04:52:56;;;;;;;8.02;6.70;;;19.10;99.90;;;;;;5096409;28;20225;-74
2022/07/23 04:55:24;;;;;;;8.05;7.25;;;19.10;99.90;;;;;;5093891;28;20179;-77
2022/07/23 04:57:52;;;;;;;9.65;7.22;;;19.10;99.90;;;;;;5094636;28;20179;-78
2022/07/23 05:00:17;;;;;;;11.07;7.85;;;19.10;99.90;;;;;;5093890;28;20188;-77
2022/07/23 05:02:43;;;;;;;9.77;8.00;;;19.10;99.90;;;;;;5095761;28;20213;-76
2022/07/23 05:05:09;;;;;;;10.02;7.50;;;19.20;99.90;;;;;;5092718;28;20172;-77
2022/07/23 05:07:34;;;;;;;11.80;8.75;;;19.20;99.90;;;;;;5092349;28;20205;-77
2022/07/23 05:10:00;;;;;;;11.50;8.88;;;19.20;99.90;;;;;;5087946;28;20215;-78
2022/07/23 05:12:25;;;;;;;12.48;8.50;;;19.30;99.90;;;;;;5094660;28;20324;-77
2022/07/23 05:14:53;;;;;;;12.52;8.98;;;19.30;99.90;;;;;;5087933;28;20283;-76
2022/07/23 05:17:19;;;;;;;11.50;9.32;;;19.30;99.90;;;;;;5105962;28;20471;-76
2022/07/23 05:19:47;;;;;;;10.48;8.65;;;19.30;99.90;;;;;;5090819;28;20196;-74
2022/07/23 05:22:13;;;;;;;12.43;8.70;;;19.30;99.90;;;;;;5091450;28;20200;-77
2022/07/23 05:24:38;;;;;;;12.27;9.05;;;19.30;99.90;;;;;;5093509;28;20178;-77
2022/07/23 05:27:06;;;;;;;11.75;8.77;;;19.30;99.90;;;;;;5091817;28;20216;-72
2022/07/23 05:29:32;;;;;;;10.60;7.80;;;19.40;99.90;;;;;;5090904;28;20203;-72
2022/07/23 05:32:00;;;;;;;11.35;8.90;;;19.40;99.90;;;;;;5095528;28;20194;-72
2022/07/23 05:34:28;;;;;;;11.88;9.13;;;19.50;99.90;;;;;;5090476;28;20269;-73
2022/07/23 05:36:53;;;;;;;10.75;8.48;;;19.50;99.90;;;;;;5094079;28;20253;-70
2022/07/23 05:39:19;;;;;;;11.98;10.18;;;19.60;99.90;;;;;;5092434;28;20171;-72
2022/07/23 05:41:44;;;;;;;10.82;9.25;;;19.60;99.90;;;;;;5093847;28;20248;-72
2022/07/23 05:44:12;;;;;;;11.63;8.35;;;19.60;99.90;;;;;;5093137;28;20183;-72
2022/07/23 05:46:38;;;;;;;9.65;8.20;;;19.70;99.90;;;;;;5091749;28;20176;-72
2022/07/23 05:49:04;;;;;;;11.02;8.82;;;19.70;99.90;;;;;;5096142;28;20222;-72
2022/07/23 05:51:32;;;;;;;10.75;8.32;;;19.70;99.90;;;;;;5090474;28;20222;-73
2022/07/23 05:53:59;;;;;;;10.68;7.95;;;19.80;99.90;;;;;;5093239;28;20163;-72
2022/07/23 05:56:25;;;;;;;11.73;8.13;;;19.80;99.90;;;;;;5093272;28;20223;-73
2022/07/23 05:58:51;;;;;;;10.57;7.57;;;19.80;99.90;;;;;;5096070;28;20265;-72
2022/07/23 06:01:18;;;;;;;11.35;8.52;;;19.80;99.90;;;;;;5099977;28;20822;-73
2022/07/23 06:03:44;;;;;;;10.70;8.15;;;19.90;99.90;;;;;;5097934;28;20266;-73
2022/07/23 06:06:10;;;;;;;9.68;8.02;;;19.80;99.90;;;;;;5096161;28;20262;-72
2022/07/23 06:08:35;;;;;;;12.38;8.27;;;19.90;99.90;;;;;;5100402;28;20327;-73
2022/07/23 06:11:01;;;;;;;10.07;7.78;;;19.90;99.90;;;;;;5097841;28;20196;-67
2022/07/23 06:13:26;;;;;;;12.75;8.32;;;19.90;99.90;;;;;;5096850;28;20183;-68
2022/07/23 06:15:52;;;;;;;14.25;8.85;;;19.90;99.90;;;;;;5099997;28;20187;-66
2022/07/23 06:18:18;;;;;;;11.40;8.38;;;19.90;99.90;;;;;;5096465;28;20225;-68
2022/07/23 06:20:48;;;;;;;12.02;8.65;;;19.90;99.90;;;;;;5097816;28;20203;-68
2022/07/23 06:23:14;;;;;;;11.13;8.30;;;19.90;99.90;;;;;;5094321;28;20180;-70
2022/07/23 06:25:39;;;;;;;12.27;8.82;;;19.90;99.90;;;;;;5097958;28;20203;-66
2022/07/23 06:28:05;;;;;;;12.35;8.48;;;19.90;99.90;;;;;;5098614;28;20332;-68
2022/07/23 06:30:31;;;;;;;8.90;7.13;;;19.90;99.90;;;;;;5096243;28;20195;-66
2022/07/23 06:32:56;;;;;;;12.30;8.10;;;20.00;99.90;;;;;;5096861;28;20188;-69
2022/07/23 06:35:24;;;;;;;10.30;8.02;;;20.00;99.90;;;;;;5094208;28;20172;-68
2022/07/23 06:37:50;;;;;;;10.43;7.80;;;20.00;99.90;;;;;;5095813;28;20184;-66
2022/07/23 06:40:18;;;;;;;13.30;8.70;;;20.10;99.90;;;;;;5097561;28;20207;-73
2022/07/23 06:42:44;;;;;;;9.70;7.78;;;20.10;99.90;;;;;;5092692;28;20861;-71
2022/07/23 06:45:12;;;;;;;10.43;7.65;;;20.20;99.90;;;;;;5098229;28;20184;-73
2022/07/23 06:47:38;;;;;;;9.98;7.65;;;20.20;99.90;;;;;;5096193;28;20514;-74
2022/07/23 06:50:06;;;;;;;9.23;6.88;;;20.30;99.90;;;;;;5102753;28;20192;-74
2022/07/23 06:52:32;;;;;;;10.60;6.95;;;20.30;99.90;;;;;;5096403;28;20180;-74
2022/07/23 06:55:00;;;;;;;11.10;7.68;;;20.30;99.90;;;;;;5095543;28;20172;-73
2022/07/23 06:57:30;;;;;;;9.88;7.15;;;20.40;99.90;;;;;;5095813;28;20184;-74
2022/07/23 06:59:56;;;;;;;9.68;7.68;;;20.40;99.90;;;;;;5096144;28;20208;-73
2022/07/23 07:02:21;;;;;;;8.98;6.85;;;20.50;99.90;;;;;;5095736;28;20194;-73
2022/07/23 07:04:49;;;;;;;9.45;6.95;;;20.50;99.90;;;;;;5093263;28;20179;-74
2022/07/23 07:07:15;;;;;;;7.90;6.07;;;20.60;99.90;;;;;;5095826;28;20203;-73
2022/07/23 07:09:40;;;;;;;8.07;6.45;;;20.60;99.90;;;;;;5094359;28;20202;-73
2022/07/23 07:12:06;;;;;;;8.55;6.70;;;20.70;99.90;;;;;;5094665;28;20200;-71
2022/07/23 07:14:32;;;;;;;7.57;6.38;;;20.70;99.90;;;;;;5095549;28;20180;-68
2022/07/23 07:16:57;;;;;;;8.65;6.47;;;20.80;99.90;;;;;;5094680;28;20192;-71
2022/07/23 07:19:25;;;;;;;7.22;5.50;;;20.80;99.90;;;;;;5093875;28;20211;-74
2022/07/23 07:21:51;;;;;;;8.45;6.05;;;20.90;99.90;;;;;;5095956;28;20261;-74
2022/07/23 07:24:19;;;;;;;8.45;6.03;;;20.90;99.90;;;;;;5093230;28;20172;-74
2022/07/23 07:26:47;;;;;;;7.68;5.20;;;21.00;99.90;;;;;;5097005;28;20195;-73
2022/07/23 07:29:15;;;;;;;6.05;4.88;;;21.00;99.90;;;;;;5093705;28;20202;-72
2022/07/23 07:31:40;;;;;;;6.57;4.93;;;21.10;99.90;;;;;;5091208;28;20252;-74
2022/07/23 07:34:06;;;;;;;5.47;4.45;;;21.10;99.90;;;;;;5095509;28;20171;-75
2022/07/23 07:36:32;;;;;;;5.68;5.07;;;21.20;99.90;;;;;;5093193;28;20169;-73
2022/07/23 07:38:58;;;;;;;6.72;4.35;;;21.20;99.90;;;;;;5092609;28;20207;-72
2022/07/23 07:41:25;;;;;;;4.72;4.00;;;21.20;99.90;;;;;;5093110;28;20195;-75
2022/07/23 07:43:56;;;;;;;6.43;4.78;;;21.30;99.90;;;;;;5097110;28;20207;-74
2022/07/23 07:46:24;;;;;;;7.07;5.18;;;21.30;99.90;;;;;;5094970;28;20182;-75
2022/07/23 07:48:50;;;;;;;7.90;4.82;;;21.40;99.90;;;;;;5091915;28;20195;-73
2022/07/23 07:51:16;;;;;;;4.65;3.83;;;21.40;99.90;;;;;;5094657;28;20269;-74
2022/07/23 07:53:44;;;;;;;5.57;4.07;;;21.50;99.90;;;;;;5100060;28;20183;-75
2022/07/23 07:56:10;;;;;;;5.00;4.05;;;21.60;99.90;;;;;;5093821;28;20235;-73
2022/07/23 07:58:35;;;;;;;5.05;3.95;;;21.60;99.90;;;;;;5095503;28;20231;-74
2022/07/23 08:01:02;;;;;;;4.97;3.70;;;21.70;99.90;;;;;;5096515;28;20188;-73
2022/07/23 08:03:28;;;;;;;4.82;3.65;;;21.70;99.90;;;;;;5095629;28;20260;-74
2022/07/23 08:05:53;;;;;;;5.57;4.40;;;21.70;99.90;;;;;;5097800;28;20871;-73
2022/07/23 08:08:19;;;;;;;6.07;4.82;;;21.80;99.90;;;;;;5094928;28;20202;-74
2022/07/23 08:10:49;;;;;;;5.15;3.95;;;21.90;99.90;;;;;;5097905;28;20216;-75
2022/07/23 08:13:16;;;;;;;6.10;4.65;;;21.90;99.90;;;;;;5095039;28;20425;-74
2022/07/23 08:15:42;;;;;;;7.00;4.55;;;21.90;99.90;;;;;;5092879;28;20188;-73
2022/07/23 08:18:08;;;;;;;7.07;4.85;;;22.00;99.90;;;;;;5093498;28;20280;-75
2022/07/23 08:20:34;;;;;;;8.57;4.80;;;22.10;99.90;;;;;;5097444;28;20195;-74
2022/07/23 08:23:06;;;;;;;7.43;4.90;;;22.10;99.90;;;;;;5095139;28;20172;-75
2022/07/23 08:25:41;;;;;;;7.55;5.60;;;22.20;99.90;;;;;;5094534;28;20196;-75
2022/07/23 08:28:12;;;;;;;6.35;4.97;;;22.20;99.90;;;;;;5097355;28;20186;-73
2022/07/23 08:30:39;;;;;;;6.93;5.05;;;22.30;99.90;;;;;;5101509;28;20292;-74
2022/07/23 08:33:12;;;;;;;5.57;4.70;;;22.40;99.90;;;;;;5095388;28;20182;-75
2022/07/23 08:35:40;;;;;;;5.65;4.85;;;22.40;99.90;;;;;;5095919;28;20229;-75
2022/07/23 08:38:10;;;;;;;7.53;4.82;;;22.50;99.90;;;;;;5094825;28;20180;-73
2022/07/23 08:40:41;;;;;;;6.30;4.75;;;22.60;99.90;;;;;;5095840;28;20255;-75
2022/07/23 08:43:11;;;;;;;6.25;4.70;;;22.70;99.90;;;;;;5098410;28;20324;-75
2022/07/23 08:45:39;;;;;;;5.60;4.97;;;22.80;99.90;;;;;;5092995;28;20199;-75
2022/07/23 08:48:11;;;;;;;6.25;4.63;;;22.90;99.90;;;;;;5094181;28;20172;-74
2022/07/23 08:50:37;;;;;;;6.78;5.03;;;23.00;99.90;;;;;;5095397;28;20195;-75
2022/07/23 08:53:07;;;;;;;7.03;5.47;;;23.00;99.90;;;;;;5092037;28;20254;-74
2022/07/23 08:55:32;;;;;;;8.80;5.97;;;23.00;99.90;;;;;;5095338;28;20195;-74
2022/07/23 08:57:58;;;;;;;5.40;4.82;;;23.00;99.90;;;;;;5095591;28;20175;-75
2022/07/23 09:00:24;;;;;;;7.47;4.95;;;23.10;99.90;;;;;;5092889;28;20180;-75
2022/07/23 09:02:50;;;;;;;7.85;5.57;;;23.10;99.90;;;;;;5096033;28;20172;-74
2022/07/23 09:05:17;;;;;;;5.05;4.55;;;23.10;99.90;;;;;;5097396;28;20176;-75
2022/07/23 09:08:21;;;;;;;6.82;4.85;;;23.20;99.90;;;;;;5095096;28;20172;-75
2022/07/23 09:10:58;;;;;;;5.63;4.78;;;23.20;99.90;;;;;;5089003;28;20203;-75
2022/07/23 09:13:47;;;;;;;5.25;4.75;;;23.30;99.90;;;;;;5096771;28;20163;-74
2022/07/23 09:16:16;;;;;;;7.22;5.63;;;23.30;99.90;;;;;;5094399;28;20196;-74
2022/07/23 09:18:46;;;;;;;6.15;4.95;;;23.30;99.90;;;;;;5094330;28;20168;-75
2022/07/23 09:21:35;;;;;;;6.70;5.32;;;23.40;99.90;;;;;;5096345;28;20215;-74
2022/07/23 09:24:01;;;;;;;5.57;4.68;;;23.40;99.90;;;;;;5099831;28;20283;-74
2022/07/23 09:26:32;;;;;;;5.45;4.63;;;23.50;99.90;;;;;;5093816;28;20171;-74
2022/07/23 09:29:10;;;;;;;8.43;6.10;;;23.50;99.90;;;;;;5093531;28;20191;-74
2022/07/23 09:31:44;;;;;;;6.85;5.28;;;23.60;99.90;;;;;;5097958;28;20191;-75
2022/07/23 09:34:38;;;;;;;6.32;4.78;;;23.60;99.90;;;;;;5089776;28;20183;-74
2022/07/23 09:37:19;;;;;;;6.55;5.03;;;23.70;99.90;;;;;;5092754;28;20176;-74
2022/07/23 09:39:49;;;;;;;8.05;5.13;;;23.70;99.90;;;;;;5091266;28;20952;-75
2022/07/23 09:42:21;;;;;;;7.03;5.50;;;23.70;99.90;;;;;;5092844;28;20176;-75
2022/07/23 09:44:57;;;;;;;5.65;5.13;;;23.70;99.90;;;;;;5092256;28;20172;-74
2022/07/23 09:47:26;;;;;;;6.50;5.40;;;23.70;99.90;;;;;;5095260;28;20241;-74
2022/07/23 09:50:12;;;;;;;6.38;4.93;;;23.80;99.90;;;;;;5093390;28;20269;-76
2022/07/23 09:52:48;;;;;;;5.45;4.35;;;23.80;99.90;;;;;;5092892;28;20275;-74
2022/07/23 09:55:18;;;;;;;5.18;4.57;;;23.90;99.90;;;;;;5087763;28;20259;-74
2022/07/23 09:57:49;;;;;;;7.13;4.45;;;23.90;99.90;;;;;;5093465;28;20178;-74
2022/07/23 10:00:15;;;;;;;8.70;5.22;;;24.00;99.90;;;;;;5092910;28;20263;-73
2022/07/23 10:02:46;;;;;;;6.60;4.70;;;24.10;99.90;;;;;;5093151;28;20211;-73
2022/07/23 10:05:14;;;;;;;6.43;4.90;;;24.10;99.90;;;;;;5091982;28;20172;-75
2022/07/23 10:07:41;;;;;;;5.72;5.00;;;24.20;99.90;;;;;;5094574;28;20199;-75
2022/07/23 10:10:08;;;;;;;5.07;4.07;;;24.30;99.90;;;;;;5095612;28;20211;-74
2022/07/23 10:15:17;;;;;;;5.05;4.20;;;24.40;99.90;;;;;;5092578;28;20196;-75
2022/07/23 10:17:45;;;;;;;3.97;3.58;;;24.50;99.90;;;;;;5092371;28;20194;-74
2022/07/23 10:20:11;;;;;;;4.88;4.28;;;24.60;99.90;;;;;;5091422;28;20184;-74
2022/07/23 10:22:45;;;;;;;4.63;3.90;;;24.70;99.90;;;;;;5093325;28;20210;-73
2022/07/23 10:25:34;;;;;;;5.65;4.95;;;24.70;99.90;;;;;;5091810;28;20186;-74
2022/07/23 10:28:12;;;;;;;4.68;4.18;;;24.80;99.90;;;;;;5126119;27;20265;-74
2022/07/23 10:30:43;;;;;;;4.05;3.65;;;24.80;99.90;;;;;;5093137;28;20207;-72
2022/07/23 10:33:41;;;;;;;4.07;3.45;;;24.90;99.90;;;;;;5092408;28;20266;-74
2022/07/23 10:36:35;;;;;;;5.50;3.60;;;25.00;99.90;;;;;;5088138;28;20234;-70
2022/07/23 10:39:03;;;;;;;4.50;3.97;;;25.20;99.90;;;;;;5090309;28;20177;-71
2022/07/23 10:41:44;;;;;;;6.32;4.20;;;25.50;99.90;;;;;;5092339;28;20186;-72
2022/07/23 10:44:19;;;;;;;5.38;4.32;;;25.80;99.90;;;;;;5091133;28;20203;-70
2022/07/23 10:49:35;;;;;;;5.57;4.57;;;26.30;99.90;;;;;;5090057;28;20192;-71
2022/07/23 10:52:13;;;;;;;5.82;5.00;;;26.50;99.90;;;;;;5095774;28;20196;-72
2022/07/23 10:54:39;;;;;;;5.35;4.68;;;26.70;99.90;;;;;;5093636;28;20180;-71
2022/07/23 10:57:11;;;;;;;5.15;3.80;;;26.70;99.90;;;;;;5095671;28;20168;-71
2022/07/23 11:00:09;;;;;;;3.65;3.13;;;26.80;99.90;;;;;;5095064;28;20177;-72
2022/07/23 11:02:36;;;;;;;3.40;3.10;;;27.00;99.90;;;;;;5096133;28;20191;-71
2022/07/23 11:05:05;;;;;;;4.22;3.40;;;27.10;99.90;;;;;;5116541;27;20208;-71
2022/07/23 11:07:31;;;;;;;4.57;4.18;;;27.30;99.90;;;;;;5091945;28;20229;-71
2022/07/23 11:09:57;;;;;;;4.53;4.13;;;27.30;99.90;;;;;;5094307;28;20191;-71
2022/07/23 11:12:31;;;;;;;4.82;4.13;;;27.50;99.90;;;;;;5097522;28;20215;-71
2022/07/23 11:15:11;;;;;;;4.88;4.20;;;27.60;99.90;;;;;;5094314;28;20325;-72
2022/07/23 11:18:04;;;;;;;6.25;3.67;;;27.80;99.90;;;;;;5097941;28;20187;-74
2022/07/23 11:20:30;;;;;;;5.70;4.28;;;27.90;99.90;;;;;;5094778;28;20203;-76
2022/07/23 11:22:59;;;;;;;4.65;4.25;;;28.00;99.90;;;;;;5096403;28;20188;-75
2022/07/23 11:25:25;;;;;;;5.47;3.65;;;28.10;99.90;;;;;;5130142;27;20195;-74
2022/07/23 11:27:51;;;;;;;5.78;4.70;;;28.20;99.90;;;;;;5099661;28;20238;-74
2022/07/23 11:30:28;;;;;;;5.57;4.85;;;28.30;99.90;;;;;;5102580;28;20204;-75
2022/07/23 11:33:12;;;;;;;4.60;4.20;;;28.40;99.90;;;;;;5095502;28;20211;-75
2022/07/23 11:35:46;;;;;;;4.28;3.88;;;28.50;99.90;;;;;;5101525;28;20180;-75
2022/07/23 11:38:26;;;;;;;4.45;4.00;;;28.60;99.90;;;;;;5099161;28;20187;-76
2022/07/23 11:40:59;;;;;;;4.28;3.55;;;28.70;99.90;;;;;;5096686;28;20201;-73
2022/07/23 11:43:25;;;;;;;4.43;4.03;;;28.80;99.90;;;;;;5099664;28;20180;-73
2022/07/23 11:46:00;;;;;;;5.15;3.97;;;28.80;99.90;;;;;;5098586;28;20217;-73
2022/07/23 11:48:30;;;;;;;5.80;5.15;;;28.80;99.90;;;;;;5094393;28;21119;-74
2022/07/23 11:51:02;;;;;;;5.22;4.10;;;28.90;99.90;;;;;;5096645;28;20196;-73
2022/07/23 11:53:33;;;;;;;4.35;3.88;;;28.90;99.90;;;;;;5096187;28;21012;-72
2022/07/23 11:56:07;;;;;;;3.90;3.30;;;29.00;99.90;;;;;;5094886;28;20244;-72
2022/07/23 11:58:36;;;;;;;3.70;3.28;;;29.10;99.90;;;;;;5093337;28;20319;-72
2022/07/23 12:01:04;;;;;;;5.05;4.38;;;29.20;99.90;;;;;;5093709;28;20199;-73
2022/07/23 12:03:30;;;;;;;4.93;4.30;;;29.30;99.90;;;;;;5096472;28;20217;-72
2022/07/23 12:06:02;;;;;;;4.30;3.90;;;29.40;99.90;;;;;;5093575;28;20266;-71
2022/07/23 12:08:27;;;;;;;6.40;3.70;;;29.40;99.90;;;;;;5126956;27;20216;-73
2022/07/23 12:10:55;;;;;;;5.90;3.90;;;29.50;99.90;;;;;;5095212;28;20188;-71
2022/07/23 12:13:22;;;;;;;3.17;2.88;;;29.60;99.90;;;;;;5093696;28;20306;-73
2022/07/23 12:15:56;;;;;;;5.80;3.65;;;29.70;99.90;;;;;;5093300;28;20249;-72
2022/07/23 12:18:24;;;;;;;5.85;3.88;;;29.80;99.90;;;;;;5093315;28;20234;-73
2022/07/23 12:20:54;;;;;;;4.15;3.72;;;29.90;99.90;;;;;;5094933;28;20183;-72
2022/07/23 12:23:21;;;;;;;4.40;4.00;;;29.90;99.80;;;;;;5092014;28;20198;-71
2022/07/23 12:25:49;;;;;;;4.88;3.90;;;30.00;99.90;;;;;;5096511;28;20187;-72
2022/07/23 12:28:19;;;;;;;4.20;3.80;;;30.00;99.90;;;;;;5093241;28;20240;-72
2022/07/23 12:30:56;;;;;;;4.10;3.47;;;30.00;99.60;;;;;;5093219;28;20191;-72
2022/07/23 12:33:28;;;;;;;4.88;3.55;;;30.10;99.90;;;;;;5096557;28;20186;-73
2022/07/23 12:36:04;;;;;;;4.93;3.70;;;30.10;99.50;;;;;;5093951;28;20194;-73
2022/07/23 12:38:47;;;;;;;5.00;3.40;;;30.10;97.40;;;;;;5100373;28;20175;-72
2022/07/23 12:41:12;;;;;;;3.90;3.50;;;30.10;98.30;;;;;;5095513;28;20183;-72
2022/07/23 12:43:43;;;;;;;4.50;3.15;;;30.10;99.30;;;;;;5095668;28;21148;-71
2022/07/23 12:46:14;;;;;;;5.13;3.58;;;30.20;97.80;;;;;;5095561;28;20199;-72
2022/07/23 12:48:52;;;;;;;3.80;3.00;;;30.30;97.90;;;;;;5094577;28;20189;-73
2022/07/23 12:51:18;;;;;;;3.75;3.17;;;30.40;96.10;;;;;;5095055;28;20274;-73
2022/07/23 12:53:51;;;;;;;3.50;3.15;;;30.50;98.10;;;;;;5094026;28;20190;-74
2022/07/23 12:56:16;;;;;;;3.53;2.70;;;30.60;95.50;;;;;;5092633;28;20258;-73